Flatbush, Canada
Current Conditions -  °F | °C
As of 10:00 PM on Thursday 30 Oct 2014 (Local Time) from CYZH Reporting Station
Haze Haze  
Wind Chill: 22°   Ceiling: 800
Heat Index: 34°   Visibility: 4mi
Dew Point: 34°   Wind: 23mph
Humidity: 100%   Direction: 120°ESE
Pressure: 29.85"   Gusts: NA
Location:  54.68°N, 114.15°W
Report Text: CYZH 310400Z AUTO 12020KT 4SM BR OVC008 01/01 A2985 RMK SLP135
Loading
Personal Weather Stations






























Interactive Weather Map
Tropical Storm Tracking
New forecast layout! Learn more

10-Day Weather Forecast

Advertisements
Track Severe Weather on mobile